sensor_id;sensor_type;location;lat;lon;timestamp;pressure;altitude;pressure_sealevel;temperature;humidity
8162;BME280;16778;48.154;15.094;2024-02-26T19:45:32;97671.75;;;4.80;100.00
8162;BME280;16778;48.154;15.094;2024-02-26T19:47:58;97672.16;;;4.77;100.00
8162;BME280;16778;48.154;15.094;2024-02-26T19:50:24;97674.00;;;4.76;100.00
8162;BME280;16778;48.154;15.094;2024-02-26T19:52:50;97669.25;;;4.78;100.00
8162;BME280;16778;48.154;15.094;2024-02-26T19:55:16;97669.66;;;4.82;100.00
8162;BME280;16778;48.154;15.094;2024-02-26T19:57:43;97668.41;;;4.84;100.00
8162;BME280;16778;48.154;15.094;2024-02-26T20:00:09;97675.88;;;4.82;100.00
8162;BME280;16778;48.154;15.094;2024-02-26T20:02:37;97673.78;;;4.78;100.00
8162;BME280;16778;48.154;15.094;2024-02-26T20:05:03;97689.31;;;4.76;100.00
8162;BME280;16778;48.154;15.094;2024-02-26T20:07:29;97691.00;;;4.77;100.00
8162;BME280;16778;48.154;15.094;2024-02-26T20:09:56;97693.47;;;4.78;100.00
8162;BME280;16778;48.154;15.094;2024-02-26T20:12:22;97702.59;;;4.77;100.00
8162;BME280;16778;48.154;15.094;2024-02-26T20:14:47;97707.53;;;4.74;100.00
8162;BME280;16778;48.154;15.094;2024-02-26T20:17:13;97708.38;;;4.74;100.00
8162;BME280;16778;48.154;15.094;2024-02-26T20:19:42;97704.19;;;4.72;100.00
8162;BME280;16778;48.154;15.094;2024-02-26T20:22:11;97711.03;;;4.67;100.00
8162;BME280;16778;48.154;15.094;2024-02-26T20:24:39;97709.59;;;4.65;100.00
8162;BME280;16778;48.154;15.094;2024-02-26T20:27:06;97717.25;;;4.61;100.00
8162;BME280;16778;48.154;15.094;2024-02-26T20:29:34;97715.38;;;4.55;100.00
8162;BME280;16778;48.154;15.094;2024-02-26T20:32:00;97705.66;;;4.48;100.00
8162;BME280;16778;48.154;15.094;2024-02-26T20:34:26;97708.13;;;4.43;100.00
8162;BME280;16778;48.154;15.094;2024-02-26T20:36:52;97700.28;;;4.48;100.00
8162;BME280;16778;48.154;15.094;2024-02-26T20:39:18;97702.13;;;4.47;100.00
8162;BME280;16778;48.154;15.094;2024-02-26T20:41:44;97702.53;;;4.44;100.00
8162;BME280;16778;48.154;15.094;2024-02-26T20:44:10;97712.66;;;4.42;100.00
8162;BME280;16778;48.154;15.094;2024-02-26T20:46:42;97711.22;;;4.40;100.00
8162;BME280;16778;48.154;15.094;2024-02-26T20:49:08;97718.84;;;4.36;100.00
8162;BME280;16778;48.154;15.094;2024-02-26T20:51:36;97725.69;;;4.39;100.00
8162;BME280;16778;48.154;15.094;2024-02-26T20:54:02;97721.53;;;4.36;100.00
8162;BME280;16778;48.154;15.094;2024-02-26T20:56:36;97716.56;;;4.33;100.00
8162;BME280;16778;48.154;15.094;2024-02-26T20:59:02;97726.50;;;4.26;100.00
8162;BME280;16778;48.154;15.094;2024-02-26T21:01:28;97728.72;;;4.16;100.00
8162;BME280;16778;48.154;15.094;2024-02-26T21:03:54;97734.28;;;4.08;100.00
8162;BME280;16778;48.154;15.094;2024-02-26T21:06:20;97732.59;;;4.00;100.00
8162;BME280;16778;48.154;15.094;2024-02-26T21:08:45;97724.13;;;3.97;100.00
8162;BME280;16778;48.154;15.094;2024-02-26T21:11:11;97725.97;;;3.90;100.00
8162;BME280;16778;48.154;15.094;2024-02-26T21:13:37;97716.84;;;3.84;100.00
8162;BME280;16778;48.154;15.094;2024-02-26T21:16:04;97708.97;;;3.83;100.00
8162;BME280;16778;48.154;15.094;2024-02-26T21:18:30;97708.97;;;3.83;100.00
8162;BME280;16778;48.154;15.094;2024-02-26T21:20:56;97710.81;;;3.82;100.00
8162;BME280;16778;48.154;15.094;2024-02-26T21:23:24;97725.53;;;3.86;100.00
8162;BME280;16778;48.154;15.094;2024-02-26T21:25:50;97725.75;;;3.91;100.00
8162;BME280;16778;48.154;15.094;2024-02-26T21:28:16;97721.81;;;3.94;100.00
8162;BME280;16778;48.154;15.094;2024-02-26T21:30:42;97721.66;;;3.95;100.00
8162;BME280;16778;48.154;15.094;2024-02-26T21:33:09;97727.41;;;3.99;100.00
8162;BME280;16778;48.154;15.094;2024-02-26T21:35:35;97721.25;;;4.05;100.00
8162;BME280;16778;48.154;15.094;2024-02-26T21:38:01;97718.38;;;4.13;100.00
8162;BME280;16778;48.154;15.094;2024-02-26T21:40:27;97718.81;;;4.17;100.00
8162;BME280;16778;48.154;15.094;2024-02-26T21:42:53;97716.53;;;4.14;100.00
8162;BME280;16778;48.154;15.094;2024-02-26T21:45:18;97733.69;;;4.13;100.00
8162;BME280;16778;48.154;15.094;2024-02-26T21:47:49;97734.50;;;4.13;100.00
8162;BME280;16778;48.154;15.094;2024-02-26T21:50:16;97747.13;;;4.13;100.00
8162;BME280;16778;48.154;15.094;2024-02-26T21:52:41;97758.47;;;4.08;100.00
8162;BME280;16778;48.154;15.094;2024-02-26T21:55:09;97764.22;;;4.05;100.00
8162;BME280;16778;48.154;15.094;2024-02-26T21:57:37;97761.28;;;3.93;100.00
8162;BME280;16778;48.154;15.094;2024-02-26T22:00:05;97767.88;;;3.91;100.00
8162;BME280;16778;48.154;15.094;2024-02-26T22:02:32;97760.44;;;3.86;100.00
8162;BME280;16778;48.154;15.094;2024-02-26T22:04:58;97762.06;;;3.81;100.00
8162;BME280;16778;48.154;15.094;2024-02-26T22:07:23;97773.44;;;3.83;100.00
8162;BME280;16778;48.154;15.094;2024-02-26T22:09:49;97768.28;;;3.88;100.00
8162;BME280;16778;48.154;15.094;2024-02-26T22:12:15;97761.50;;;3.92;100.00
